Latest Weather Observations for Lombadina

IDW60801

Issued at 7:33 pm WST Wednesday 26 April 2017 (issued every 30 minutes, with the page automatically refreshed every 10 minutes)

About weather observations | Map of weather stations | Latest weather observations for WA | Other Formats
Station Details ID: 503016 Name: LOMBADINA AIRSTRIP Lat: -16.52 Lon: 122.92 Height: 42.0 m
Data from the previous 72 hours. | See also: Recent months for locations in Western Australia
Date/Time
WST
Temp
°C
App
Temp
°C
Dew
Point
°C
Rel
Hum
%
Delta-T
°C
Wind Press
QNH
hPa
Press
MSL
hPa
Rain since
9am
mm
Dir  Spd
km/h
Gust
km/h
Spd
kts
Gust
kts
26/07:30pm 29.4 31.7 19.4 55 6.5 S 6 11 3 6 1011.9 1011.6 0.0
26/07:00pm 29.6 32.0 19.6 55 6.5 SSE 6 11 3 6 1011.6 1011.3 0.0
26/06:30pm 29.1 32.3 20.5 59 5.7 SSE 4 7 2 4 1011.2 1010.9 0.0
26/06:00pm 29.2 32.4 20.6 59 5.7 SSE 4 6 2 3 1010.9 1010.6 0.0
26/05:30pm 29.8 33.0 20.4 57 6.2 SSE 4 7 2 4 1010.5 1010.2 0.0
26/05:00pm 30.8 33.4 20.1 53 7.1 SSE 6 11 3 6 1010.2 1009.9 0.0
26/04:30pm 31.7 34.1 20.0 50 7.7 SE 7 15 4 8 1009.8 1009.5 0.0
26/04:00pm 32.4 33.7 19.3 46 8.6 SE 11 22 6 12 1009.6 1009.3 0.0
26/03:30pm 32.2 33.4 19.8 48 8.2 SE 13 26 7 14 1009.4 1009.1 0.0
26/03:00pm 33.1 34.7 19.9 45 8.8 SE 11 22 6 12 1009.4 1009.1 0.0
26/02:30pm 31.5 32.5 19.5 49 7.9 SE 13 24 7 13 1009.7 1009.4 0.0
26/02:00pm 31.6 32.5 19.2 47 8.1 SE 13 24 7 13 1009.9 1009.6 0.0
26/01:30pm 31.8 31.9 19.1 47 8.3 SE 17 30 9 16 1009.9 1009.6 0.0
26/01:00pm 30.6 31.2 20.2 53 6.9 SE 17 30 9 16 1010.2 1009.9 0.0
26/12:30pm 30.1 31.2 20.4 56 6.4 SE 15 28 8 15 1010.5 1010.2 0.0
26/12:00pm 30.6 31.3 20.5 54 6.7 SE 17 33 9 18 1010.8 1010.5 0.0
26/11:30am 30.7 31.8 21.2 57 6.4 SE 17 30 9 16 1011.2 1010.9 0.0
26/11:00am 30.8 31.2 20.7 55 6.7 SE 19 33 10 18 1011.5 1011.2 0.0
26/10:30am 29.9 30.9 21.0 59 5.9 SE 17 32 9 17 1012.1 1011.8 0.0
26/10:00am 28.6 30.1 20.6 62 5.3 SE 13 26 7 14 1012.5 1012.2 0.0
26/09:30am 28.4 30.0 20.7 63 5.1 SE 13 28 7 15 1012.5 1012.2 0.0
26/09:00am 27.6 30.8 21.6 70 4.0 SSE 7 17 4 9 1012.5 1012.2 0.0
26/08:30am 27.5 30.7 22.4 73 3.4 SSE 9 17 5 9 1012.1 1011.8 0.0
26/08:00am 27.7 31.9 23.1 76 3.1 SE 6 11 3 6 1012.2 1011.9 0.0
26/07:30am 27.2 31.7 23.0 78 2.9 SE 4 9 2 5 1012.2 1011.9 0.0
26/07:00am 26.8 31.4 23.1 80 2.5 SSE 4 6 2 3 1012.3 1012.0 0.0
26/06:30am 26.0 30.7 22.7 82 2.2 SSE 2 6 1 3 1011.8 1011.5 0.0
26/06:00am 25.7 29.9 22.4 82 2.2 S 4 7 2 4 1011.6 1011.3 0.0
26/05:30am 26.3 30.9 22.4 79 2.6 SE 2 7 1 4 1011.3 1011.0 0.0
26/05:00am 27.1 31.5 22.1 74 3.4 S 2 6 1 3 1011.0 1010.7 0.0
26/04:30am 27.4 31.6 22.4 74 3.4 SE 4 7 2 4 1010.8 1010.5 0.0
26/04:00am 27.7 31.1 22.0 71 3.8 SE 7 13 4 7 1010.9 1010.6 0.0
26/03:30am 27.1 31.0 22.5 76 3.1 SE 6 9 3 5 1011.1 1010.8 0.0
26/03:00am 27.9 31.6 22.6 73 3.6 SE 7 15 4 8 1011.3 1011.0 0.0
26/02:30am 28.0 31.5 22.9 74 3.5 SE 9 17 5 9 1011.6 1011.3 0.0
26/02:00am 28.2 31.4 21.7 68 4.4 ESE 7 13 4 7 1011.6 1011.3 0.0
26/01:30am 28.8 32.5 23.2 71 3.8 SE 9 15 5 8 1011.9 1011.6 0.0
26/01:00am 27.7 32.0 23.3 77 3.0 SSE 6 11 3 6 1011.9 1011.6 0.0
26/12:30am 27.7 33.1 23.9 80 2.6 SSW 2 6 1 3 1011.8 1011.5 0.0
26/12:00am 27.6 33.2 24.8 85 2.0 SSW 4 7 2 4 1012.3 1012.0 0.0
 
Date/Time
WST
Temp
°C
App
Temp
°C
Dew
Point
°C
Rel
Hum
%
Delta-T
°C
Wind Press
QNH
hPa
Press
MSL
hPa
Rain since
9am
mm
Dir  Spd
km/h
Gust
km/h
Spd
kts
Gust
kts
25/11:30pm 27.6 33.1 24.6 84 2.1 S 4 7 2 4 1012.4 1012.1 0.0
25/11:00pm 27.6 33.6 24.8 85 2.0 SSE 2 6 1 3 1012.4 1012.1 0.0
25/10:30pm 27.8 33.6 24.6 83 2.2 SSW 2 4 1 2 1012.5 1012.2 0.0
25/10:00pm 28.6 34.3 24.4 78 2.9 S 2 6 1 3 1012.6 1012.3 0.0
25/09:30pm 28.1 34.6 25.1 84 2.1 CALM 0 4 0 2 1012.8 1012.5 0.0
25/09:00pm 28.2 33.8 24.8 82 2.4 SW 4 7 2 4 1012.8 1012.5 0.0
25/08:30pm 28.2 33.8 24.8 82 2.4 SW 4 7 2 4 1012.8 1012.5 0.0
25/08:00pm 27.8 33.6 24.6 83 2.2 SW 2 6 1 3 1012.5 1012.2 0.0
25/07:30pm 27.9 33.0 24.7 83 2.2 SW 6 7 3 4 1011.9 1011.6 0.0
25/07:00pm 27.8 33.0 24.2 81 2.5 SW 4 7 2 4 1011.5 1011.2 0.0
25/06:30pm 27.8 32.9 24.0 80 2.6 W 4 7 2 4 1011.1 1010.8 0.0
25/06:00pm 28.1 33.1 23.9 78 2.9 W 4 7 2 4 1010.9 1010.6 0.0
25/05:30pm 29.3 34.8 24.0 73 3.7 WNW 2 7 1 4 1010.8 1010.5 0.0
25/05:00pm 30.4 34.7 23.6 67 4.7 NW 7 11 4 6 1010.6 1010.3 0.0
25/04:30pm 31.3 35.6 23.7 64 5.3 NW 7 11 4 6 1010.2 1009.9 0.0
25/04:00pm 30.9 35.1 23.5 64 5.1 WNW 7 11 4 6 1009.9 1009.6 0.0
25/03:30pm 32.2 36.6 23.4 59 6.1 SSE 6 13 3 7 1009.9 1009.6 0.0
25/03:00pm 33.4 35.9 20.2 46 8.8 E 7 13 4 7 1009.7 1009.4 0.0
25/02:30pm 33.0 35.8 20.9 49 8.1 E 7 13 4 7 1009.8 1009.5 0.0
25/02:00pm 33.2 35.3 19.3 44 9.2 ESE 7 13 4 7 1009.9 1009.6 0.0
25/01:30pm 34.1 35.2 16.5 35 11.2 SSE 6 15 3 8 1010.2 1009.9 0.0
25/01:00pm 33.5 35.0 18.0 39 10.0 SSE 7 13 4 7 1010.4 1010.1 0.0
25/12:30pm 32.9 34.2 17.5 39 9.9 SE 7 15 4 8 1010.9 1010.6 0.0
25/12:00pm 33.1 36.2 22.2 52 7.5 ENE 9 15 5 8 1011.3 1011.0 0.0
25/11:30am 32.4 35.4 21.9 54 7.1 ENE 9 17 5 9 1011.6 1011.3 0.0
25/11:00am 32.5 34.0 19.0 44 8.8 SE 9 15 5 8 1012.0 1011.7 0.0
25/10:30am 32.8 35.4 20.0 47 8.5 ESE 6 13 3 7 1012.5 1012.2 0.0
25/10:00am 31.8 33.2 18.7 45 8.5 SE 9 19 5 10 1013.0 1012.7 0.0
25/09:30am 31.7 33.1 18.7 46 8.5 SE 9 20 5 11 1013.1 1012.8 0.0
25/09:00am 31.3 34.0 20.6 53 7.1 SSE 7 15 4 8 1013.1 1012.8 0.0
25/08:30am 30.2 32.9 20.2 55 6.6 SSW 6 13 3 7 1013.0 1012.7 0.0
25/08:00am 29.2 33.0 22.4 66 4.6 SW 6 11 3 6 1012.8 1012.5 0.0
25/07:30am 28.3 32.7 22.8 72 3.7 WSW 4 7 2 4 1012.8 1012.5 0.0
25/07:00am 26.4 31.5 23.3 83 2.1 WSW 2 6 1 3 1012.6 1012.3 0.0
25/06:30am 25.3 30.4 23.4 89 1.3 SSW 2 6 1 3 1012.3 1012.0 0.0
25/06:00am 25.5 30.4 23.7 90 1.2 S 4 7 2 4 1012.0 1011.7 0.0
25/05:30am 25.4 30.7 24.4 94 0.7 SSW 4 7 2 4 1011.6 1011.3 0.0
25/05:00am 25.5 30.9 24.5 94 0.7 SSW 4 7 2 4 1011.5 1011.2 0.0
25/04:30am 25.5 31.3 24.5 94 0.7 SSW 2 6 1 3 1011.2 1010.9 0.0
25/04:00am 26.1 31.4 24.9 93 0.8 SSW 6 7 3 4 1011.1 1010.8 0.0
25/03:30am 26.1 31.5 25.1 94 0.7 SSW 6 9 3 5 1011.0 1010.7 0.0
25/03:00am 26.0 31.3 25.0 94 0.7 SSW 6 9 3 5 1011.0 1010.7 0.0
25/02:30am 26.1 31.4 24.9 93 0.8 SSW 6 7 3 4 1011.1 1010.8 0.0
25/02:00am 26.2 31.3 24.6 91 1.1 SSW 6 7 3 4 1011.2 1010.9 0.0
25/01:30am 26.4 31.6 24.8 91 1.1 SSW 6 9 3 5 1011.3 1011.0 0.0
25/01:00am 26.5 31.6 24.7 90 1.3 SSW 6 9 3 5 1011.7 1011.4 0.0
25/12:30am 26.5 31.3 24.2 87 1.6 SW 6 9 3 5 1012.2 1011.9 0.0
25/12:00am 26.6 31.5 23.7 84 2.0 SW 4 6 2 3 1012.3 1012.0 0.0
 
Date/Time
WST
Temp
°C
App
Temp
°C
Dew
Point
°C
Rel
Hum
%
Delta-T
°C
Wind Press
QNH
hPa
Press
MSL
hPa
Rain since
9am
mm
Dir  Spd
km/h
Gust
km/h
Spd
kts
Gust
kts
24/11:30pm 26.5 31.6 23.4 83 2.1 WSW 2 6 1 3 1012.5 1012.2 0.0
24/11:00pm 26.6 31.5 23.1 81 2.4 WSW 2 4 1 2 1012.6 1012.3 0.0
24/10:30pm 26.9 31.4 22.9 79 2.7 W 4 6 2 3 1012.7 1012.4 0.0
24/10:00pm 27.3 32.9 23.5 80 2.6 CALM 0 2 0 1 1012.9 1012.6 0.0
24/09:30pm 27.1 32.0 23.6 81 2.4 SW 4 6 2 3 1012.7 1012.4 0.0
24/09:00pm 27.9 33.6 23.7 78 2.9 CALM 0 0 0 0 1012.8 1012.5 0.0
24/08:30pm 28.1 33.4 23.7 77 3.0 WSW 2 6 1 3 1012.7 1012.4 0.0
24/08:00pm 27.9 32.8 23.7 78 2.9 WSW 4 7 2 4 1012.6 1012.3 0.0
24/07:30pm 28.3 33.8 24.1 78 2.9 W 2 7 1 4 1012.2 1011.9 0.0
24/07:00pm 28.5 33.9 24.5 79 2.8 NNW 4 7 2 4 1011.8 1011.5 0.0
24/06:30pm 28.3 33.2 23.7 76 3.2 NNW 4 7 2 4 1011.6 1011.3 0.0
24/06:00pm 28.2 33.4 23.6 76 3.2 W 2 6 1 3 1011.3 1011.0 0.0
24/05:30pm 28.9 33.7 24.5 77 3.1 WSW 7 13 4 7 1011.2 1010.9 0.0
24/05:00pm 29.7 34.0 24.3 73 3.8 WSW 9 19 5 10 1011.1 1010.8 0.0
24/04:30pm 30.4 34.4 23.8 68 4.6 W 9 15 5 8 1010.7 1010.4 0.0
24/04:00pm 30.9 34.8 24.3 68 4.6 NW 11 17 6 9 1010.4 1010.1 0.0
24/03:30pm 31.0 34.3 23.9 66 4.9 NW 13 20 7 11 1010.3 1010.0 0.0
24/03:00pm 32.1 36.0 23.6 60 5.9 WNW 9 20 5 11 1010.1 1009.8 0.0
24/02:30pm 31.9 35.5 23.7 62 5.7 W 11 20 6 11 1010.1 1009.8 0.0
24/02:00pm 32.0 35.2 23.0 59 6.2 W 11 17 6 9 1010.3 1010.0 0.0
24/01:30pm 32.1 34.7 21.9 54 6.9 W 11 19 6 10 1010.6 1010.3 0.0
24/01:00pm 31.4 33.5 21.0 54 7.0 WNW 11 20 6 11 1010.9 1010.6 0.0
24/12:30pm 31.5 33.4 21.4 55 6.8 WNW 13 20 7 11 1011.2 1010.9 0.0
24/12:00pm 31.8 34.0 20.4 51 7.6 WNW 9 17 5 9 1011.8 1011.5 0.0
24/11:30am 32.4 34.9 21.0 51 7.7 WNW 9 19 5 10 1012.3 1012.0 0.0
24/11:00am 32.6 35.7 21.1 50 7.7 W 6 15 3 8 1012.7 1012.4 0.0
24/10:30am 31.4 35.2 21.0 54 7.0 SSW 2 9 1 5 1013.3 1013.0 0.0
24/10:00am 31.7 35.0 21.5 54 6.9 ENE 6 13 3 7 1013.7 1013.4 0.0
24/09:30am 29.8 33.7 23.0 67 4.7 E 7 13 4 7 1013.9 1013.6 0.0
24/09:00am 29.4 33.2 23.4 70 4.1 ESE 9 17 5 9 1014.2 1013.9 0.0
24/08:30am 28.5 30.8 23.4 74 3.5 E 17 30 9 16 1014.3 1014.0 0.0
24/08:00am 28.0 30.1 22.5 72 3.7 ENE 15 26 8 14 1014.3 1014.0 0.0
24/07:30am 27.7 30.4 22.9 75 3.3 ENE 13 20 7 11 1014.2 1013.9 0.0
24/07:00am 26.1 28.9 23.0 83 2.1 ENE 13 19 7 10 1014.1 1013.8 0.0
24/06:30am 25.6 28.6 23.3 87 1.6 ENE 13 20 7 11 1014.0 1013.7 0.0
24/06:00am 25.8 28.9 23.5 87 1.6 ENE 13 19 7 10 1014.0 1013.7 0.0
24/05:30am 26.1 29.5 24.0 88 1.4 NE 13 24 7 13 1013.5 1013.2 0.0
24/05:00am 26.2 29.5 23.9 87 1.6 NNE 13 22 7 12 1013.0 1012.7 0.0
24/04:30am 26.1 28.2 23.8 87 1.6 N 19 37 10 20 1013.0 1012.7 0.0
24/04:00am 28.1 33.5 25.5 86 1.8 NNW 7 17 4 9 1012.6 1012.3 0.0
24/03:30am 28.0 33.6 25.4 86 1.8 WNW 6 11 3 6 1012.0 1011.7 0.0
24/03:00am 27.8 33.0 24.8 84 2.1 W 6 9 3 5 1011.7 1011.4 0.0
24/02:30am 27.7 33.0 24.9 85 2.0 WNW 6 9 3 5 1011.3 1011.0 0.0
24/02:00am 27.8 33.5 25.6 88 1.6 W 6 9 3 5 1011.2 1010.9 0.0
24/01:30am 27.9 33.5 25.7 88 1.6 W 7 13 4 7 1011.4 1011.1 0.0
24/01:00am 27.9 33.5 25.7 88 1.6 W 7 15 4 8 1011.7 1011.4 0.0
24/12:30am 27.9 33.4 25.3 86 1.8 W 6 11 3 6 1011.9 1011.6 0.0
24/12:00am 27.5 33.0 25.3 88 1.5 W 6 11 3 6 1012.1 1011.8 0.0
 
Date/Time
WST
Temp
°C
App
Temp
°C
Dew
Point
°C
Rel
Hum
%
Delta-T
°C
Wind Press
QNH
hPa
Press
MSL
hPa
Rain since
9am
mm
Dir  Spd
km/h
Gust
km/h
Spd
kts
Gust
kts
23/11:30pm 27.7 33.7 25.5 88 1.5 WNW 4 9 2 5 1012.6 1012.3 0.0
23/11:00pm 27.8 34.1 26.0 90 1.3 NW 4 7 2 4 1012.7 1012.4 0.0
23/10:30pm 27.6 33.9 25.4 88 1.5 NW 2 6 1 3 1012.8 1012.5 0.0
23/10:00pm 27.6 32.9 25.0 86 1.8 NW 6 7 3 4 1012.5 1012.2 0.0
23/09:30pm 27.5 33.8 24.7 85 2.0 CALM 0 0 0 0 1012.7 1012.4 0.0
23/09:00pm 27.7 33.5 24.5 83 2.2 WNW 2 6 1 3 1012.6 1012.3 0.0
23/08:30pm 26.4 31.6 23.5 84 2.0 WNW 2 6 1 3 1012.5 1012.2 0.0
23/08:00pm 26.7 31.8 23.4 82 2.3 NW 2 6 1 3 1012.3 1012.0 0.0

Other Formats:

Comma delimited format used in spreadsheet applications
http://www.bom.gov.au/fwo/IDW60801/IDW60801.99206.axf

JavaScript Object Notation format (JSON) in row-major order
http://www.bom.gov.au/fwo/IDW60801/IDW60801.99206.json